Time;durP1;ratioP1;P1;durP2;ratioP2;P2;SDS_P1;SDS_P2;PMS_P1;PMS_P2;Temp;Humidity;BMP_temperature;BMP_pressure;BME280_temperature;BME280_humidity;BME280_pressure;Samples;Min_cycle;Max_cycle;Signal;HPM_P1;HPM_P2
2021/06/05 00:00:21;;;;;;;8.40;3.92;;;;;;;20.39;54.32;100712.13;4876219;28;96850;-82
2021/06/05 00:02:47;;;;;;;7.00;4.10;;;;;;;20.39;54.66;100717.47;4858997;28;98604;-80
2021/06/05 00:05:13;;;;;;;10.73;5.50;;;;;;;20.40;55.88;100713.81;4876184;28;97821;-81
2021/06/05 00:07:39;;;;;;;13.75;6.18;;;;;;;20.41;56.72;100718.19;4860611;28;96725;-80
2021/06/05 00:10:08;;;;;;;15.85;6.53;;;;;;;20.58;55.77;100717.06;4859692;28;96969;-81
2021/06/05 00:12:34;;;;;;;12.20;6.03;;;;;;;20.45;55.20;100717.03;4858902;28;101246;-81
2021/06/05 00:15:01;;;;;;;7.78;4.30;;;;;;;20.56;53.33;100718.97;4874932;28;98390;-81
2021/06/05 00:17:27;;;;;;;5.35;3.47;;;;;;;20.32;53.93;100710.81;4859929;28;96756;-80
2021/06/05 00:19:52;;;;;;;6.72;3.58;;;;;;;20.44;53.38;100693.97;4859206;28;96971;-80
2021/06/05 00:22:18;;;;;;;5.45;3.35;;;;;;;20.15;54.73;100701.31;4859982;28;98046;-81
2021/06/05 00:24:44;;;;;;;3.63;3.00;;;;;;;20.19;54.01;100696.63;4874868;28;101455;-80
2021/06/05 00:27:10;;;;;;;10.38;4.50;;;;;;;20.21;53.76;100706.22;4875527;28;97031;-81
2021/06/05 00:29:36;;;;;;;6.57;3.90;;;;;;;20.05;54.49;100710.91;4860374;28;96892;-81
2021/06/05 00:32:02;;;;;;;6.70;3.85;;;;;;;20.12;53.56;100722.84;4874401;28;101624;-80
2021/06/05 00:34:28;;;;;;;7.65;4.03;;;;;;;20.12;52.99;100714.84;4859038;28;100050;-81
2021/06/05 00:36:53;;;;;;;5.68;3.60;;;;;;;20.16;52.92;100719.03;4874086;28;97165;-81
2021/06/05 00:39:19;;;;;;;5.85;3.40;;;;;;;20.13;52.99;100705.91;4859567;28;96890;-81
2021/06/05 00:41:44;;;;;;;5.38;3.40;;;;;;;20.07;53.57;100701.84;4859067;28;102149;-81
2021/06/05 00:44:12;;;;;;;4.82;3.42;;;;;;;20.07;53.71;100701.84;4859048;28;100694;-81
2021/06/05 00:46:38;;;;;;;5.45;3.40;;;;;;;19.96;54.29;100685.72;4859714;28;96542;-82
2021/06/05 00:49:06;;;;;;;4.75;3.47;;;;;;;19.76;55.52;100676.41;4858993;28;97190;-81
2021/06/05 00:51:44;;;;;;;4.43;3.00;;;;;;;19.52;56.37;100662.88;4859250;28;101218;-81
2021/06/05 00:54:13;;;;;;;3.28;2.97;;;;;;;19.31;57.39;100673.09;4859666;28;101508;-81
2021/06/05 00:56:43;;;;;;;4.25;3.15;;;;;;;19.35;57.12;100641.84;4875536;28;97215;-81
2021/06/05 00:59:10;;;;;;;3.90;2.92;;;;;;;19.42;57.55;100649.31;4859306;28;96789;-81
2021/06/05 01:01:38;;;;;;;6.22;3.00;;;;;;;19.23;57.18;100652.34;4875909;28;98407;-81
2021/06/05 01:04:04;;;;;;;6.28;3.42;;;;;;;19.11;58.11;100649.59;4861461;28;101289;-81
2021/06/05 01:06:42;;;;;;;2.75;2.45;;;;;;;19.17;57.82;100638.59;4862816;28;96636;-81
2021/06/05 01:09:33;;;;;;;5.65;3.05;;;;;;;19.08;58.06;100632.06;4878135;28;96927;-81
2021/06/05 01:12:01;;;;;;;;;;;;;;;19.13;57.71;100627.25;4877962;28;101861;-81
2021/06/05 01:14:49;;;;;;;3.97;3.00;;;;;;;19.04;58.35;100633.19;4877965;28;100533;-81
2021/06/05 01:17:28;;;;;;;5.45;3.10;;;;;;;19.03;58.09;100628.81;4878594;28;96587;-81
2021/06/05 01:20:33;;;;;;;4.85;2.90;;;;;;;19.07;58.29;100643.63;4862444;28;96816;-81
2021/06/05 01:23:17;;;;;;;5.22;3.35;;;;;;;19.18;57.58;100645.59;4844670;28;101519;-81
2021/06/05 01:25:57;;;;;;;7.82;3.55;;;;;;;19.09;58.47;100630.25;4862027;28;101196;-81
2021/06/05 01:28:28;;;;;;;6.85;3.53;;;;;;;19.04;59.78;100619.03;4862191;28;97058;-81
2021/06/05 01:30:56;;;;;;;4.00;3.17;;;;;;;18.81;61.03;100602.75;4877968;28;96688;-82
2021/06/05 01:33:25;;;;;;;6.63;3.40;;;;;;;18.62;61.32;100615.47;4862203;28;99921;-81
2021/06/05 01:35:58;;;;;;;7.28;3.92;;;;;;;18.47;62.63;100618.16;4877848;28;98582;-82
2021/06/05 01:38:25;;;;;;;4.88;3.65;;;;;;;18.59;62.24;100615.63;4862623;28;97142;-81
2021/06/05 01:40:52;;;;;;;9.30;4.20;;;;;;;18.40;62.47;100624.78;4862540;28;97036;-81
2021/06/05 01:43:21;;;;;;;5.53;3.30;;;;;;;18.52;62.70;100616.03;4866744;28;101421;-82
2021/06/05 01:45:47;;;;;;;8.15;4.30;;;;;;;18.58;62.26;100619.25;4862879;28;100963;-81
2021/06/05 01:48:15;;;;;;;5.15;3.10;;;;;;;18.47;62.32;100598.66;4877930;28;96671;-82
2021/06/05 01:50:45;;;;;;;5.88;3.70;;;;;;;18.46;62.41;100589.84;4862761;28;96944;-81
2021/06/05 01:53:21;;;;;;;6.15;3.38;;;;;;;18.55;62.26;100583.09;4860730;28;101093;-81
2021/06/05 01:55:56;;;;;;;6.32;3.90;;;;;;;18.22;64.21;100580.75;4861972;28;101214;-81
2021/06/05 01:58:25;;;;;;;5.80;3.58;;;;;;;18.15;64.58;100582.94;4862095;28;96939;-81
2021/06/05 02:00:59;;;;;;;6.95;3.47;;;;;;;18.28;63.69;100585.69;4862120;28;96763;-81
2021/06/05 02:03:29;;;;;;;5.03;3.50;;;;;;;18.27;63.83;100598.13;4862636;28;98400;-81
2021/06/05 02:06:25;;;;;;;5.95;3.58;;;;;;;18.31;63.38;100614.72;4865377;28;99193;-81
2021/06/05 02:08:56;;;;;;;4.45;3.63;;;;;;;18.39;63.49;100616.91;4861846;28;96849;-81
2021/06/05 02:11:28;;;;;;;4.47;3.30;;;;;;;18.45;63.45;100611.22;4878022;28;97059;-82
2021/06/05 02:14:24;;;;;;;7.47;4.18;;;;;;;18.67;63.74;100605.38;4860342;28;101921;-81
2021/06/05 02:16:53;;;;;;;4.28;3.33;;;;;;;18.39;64.03;100603.63;4868204;28;98020;-81
2021/06/05 02:19:26;;;;;;;8.65;3.53;;;;;;;18.39;64.17;100598.31;4877071;28;96536;-81
2021/06/05 02:22:24;;;;;;;7.22;4.10;;;;;;;18.23;64.96;100588.59;4863715;28;97308;-81
2021/06/05 02:24:57;;;;;;;10.20;3.80;;;;;;;18.14;64.43;100578.56;4861457;28;101942;-81
2021/06/05 02:27:27;;;;;;;5.88;4.15;;;;;;;18.09;64.83;100575.31;4877390;28;101297;-81
2021/06/05 02:29:54;;;;;;;5.93;4.00;;;;;;;18.01;65.08;100583.78;4861427;28;96697;-82
2021/06/05 02:32:22;;;;;;;4.05;3.65;;;;;;;17.98;65.68;100573.34;4861100;28;96911;-81
2021/06/05 02:34:51;;;;;;;8.15;3.90;;;;;;;17.85;65.39;100582.97;4877460;28;102253;-82
2021/06/05 02:37:21;;;;;;;6.55;4.18;;;;;;;18.05;65.56;100573.81;4876954;28;101381;-81
2021/06/05 02:39:48;;;;;;;5.23;3.87;;;;;;;17.93;65.69;100585.19;4877718;28;96956;-81
2021/06/05 02:42:19;;;;;;;4.43;3.70;;;;;;;17.92;65.93;100583.44;4876326;28;97533;-81
2021/06/05 02:44:51;;;;;;;4.97;3.80;;;;;;;17.96;65.85;100575.22;4876371;28;100514;-82
2021/06/05 02:47:18;;;;;;;5.55;4.00;;;;;;;17.83;66.73;100579.56;4860332;28;101824;-82
2021/06/05 02:49:44;;;;;;;4.78;3.75;;;;;;;17.92;65.64;100579.03;4861396;28;97063;-81
2021/06/05 02:52:33;;;;;;;5.43;3.90;;;;;;;17.94;65.87;100577.09;4860691;28;97125;-81
2021/06/05 02:55:15;;;;;;;8.60;3.88;;;;;;;17.98;66.07;100586.63;4862916;28;101877;-81
2021/06/05 02:57:44;;;;;;;5.93;4.00;;;;;;;17.99;66.38;100593.63;4876779;28;101515;-82
2021/06/05 03:00:14;;;;;;;9.50;4.70;;;;;;;18.04;66.99;100620.78;4860408;28;96980;-81
2021/06/05 03:02:42;;;;;;;10.82;4.28;;;;;;;18.08;67.45;100610.81;4861855;28;96874;-82
2021/06/05 03:05:09;;;;;;;8.43;4.85;;;;;;;18.12;67.44;100622.94;4859647;28;101446;-81
2021/06/05 03:07:35;;;;;;;6.82;4.35;;;;;;;18.13;67.27;100610.53;4876505;28;101747;-82
2021/06/05 03:10:05;;;;;;;6.40;4.13;;;;;;;18.21;67.28;100618.88;4859978;28;96635;-81
2021/06/05 03:12:31;;;;;;;6.43;3.92;;;;;;;18.28;67.42;100630.84;4876527;28;97167;-81
2021/06/05 03:14:56;;;;;;;5.88;4.20;;;;;;;18.26;67.43;100633.59;4875717;28;101791;-82
2021/06/05 03:17:22;;;;;;;5.28;3.47;;;;;;;18.31;67.10;100618.22;4875981;28;101649;-82
2021/06/05 03:19:48;;;;;;;6.90;4.53;;;;;;;18.31;67.27;100612.91;4860934;28;96948;-82
2021/06/05 03:22:15;;;;;;;5.78;4.55;;;;;;;18.16;67.50;100595.25;4860332;28;96888;-82
2021/06/05 03:24:48;;;;;;;7.35;4.38;;;;;;;18.20;66.39;100585.28;4860453;28;101748;-82
2021/06/05 03:27:15;;;;;;;7.43;4.50;;;;;;;18.00;67.97;100583.84;4876271;28;100468;-82
2021/06/05 03:29:41;;;;;;;5.63;4.50;;;;;;;18.15;66.92;100582.94;4860770;28;96702;-82
2021/06/05 03:32:08;;;;;;;8.38;4.88;;;;;;;18.17;66.87;100585.47;4860200;28;96943;-81
2021/06/05 03:34:34;;;;;;;6.38;4.35;;;;;;;18.12;66.65;100591.06;4859751;28;101943;-82
2021/06/05 03:37:01;;;;;;;8.30;4.78;;;;;;;18.22;66.42;100597.53;4875712;28;101739;-81
2021/06/05 03:39:29;;;;;;;7.93;5.85;;;;;;;18.27;66.96;100600.78;4876530;28;97123;-82
2021/06/05 03:41:58;;;;;;;8.93;5.75;;;;;;;18.36;66.43;100588.72;4860983;28;97250;-82
2021/06/05 03:44:24;;;;;;;6.07;5.22;;;;;;;18.33;66.96;100595.06;4859780;28;101704;-82
2021/06/05 03:46:52;;;;;;;7.50;4.97;;;;;;;18.24;66.85;100587.69;4860460;28;101290;-82
2021/06/05 03:49:17;;;;;;;8.40;5.43;;;;;;;18.36;67.15;100588.72;4875433;28;97287;-82
2021/06/05 03:51:43;;;;;;;6.07;4.65;;;;;;;18.50;67.00;100595.81;4876439;28;96886;-81
2021/06/05 03:54:11;;;;;;;6.47;5.03;;;;;;;18.47;66.82;100590.69;4859316;28;101982;-82
2021/06/05 03:56:37;;;;;;;7.07;5.03;;;;;;;18.43;66.51;100581.22;4875821;28;98145;-82
2021/06/05 03:59:04;;;;;;;8.45;5.53;;;;;;;18.47;66.38;100585.38;4859272;28;96753;-82
2021/06/05 04:01:30;;;;;;;11.20;5.75;;;;;;;18.55;65.80;100583.09;4875994;28;96875;-81
2021/06/05 04:03:56;;;;;;;8.70;5.30;;;;;;;18.41;66.49;100572.47;4875579;28;101394;-82
2021/06/05 04:06:23;;;;;;;7.78;4.95;;;;;;;18.35;67.33;100583.47;4859939;28;98267;-82
2021/06/05 04:08:50;;;;;;;5.82;4.72;;;;;;;18.49;66.25;100573.69;4860492;28;96729;-82
2021/06/05 04:11:16;;;;;;;8.50;5.30;;;;;;;18.55;66.42;100580.44;4859078;28;97041;-82
2021/06/05 04:13:42;;;;;;;10.57;6.00;;;;;;;18.52;66.34;100570.00;4874978;28;101626;-82
2021/06/05 04:16:09;;;;;;;7.80;5.60;;;;;;;18.60;66.21;100569.53;4859244;28;101773;-81
2021/06/05 04:18:39;;;;;;;7.88;5.32;;;;;;;18.59;65.28;100567.78;4876053;28;97054;-81
2021/06/05 04:21:07;;;;;;;6.93;5.43;;;;;;;18.50;65.66;100569.22;4859796;28;96645;-81
2021/06/05 04:23:33;;;;;;;6.88;5.40;;;;;;;18.58;65.85;100569.59;4875123;28;98364;-82
2021/06/05 04:25:59;;;;;;;9.98;5.80;;;;;;;18.58;65.71;100571.41;4875231;28;97978;-81
2021/06/05 04:28:26;;;;;;;8.20;5.80;;;;;;;18.87;64.67;100572.25;4874883;28;96652;-81
2021/06/05 04:30:53;;;;;;;9.18;5.55;;;;;;;19.09;64.22;100569.91;4859971;28;96933;-81
2021/06/05 04:33:22;;;;;;;10.23;5.20;;;;;;;19.19;63.75;100575.44;4874510;28;101517;-81
2021/06/05 04:35:47;;;;;;;7.85;4.90;;;;;;;19.28;63.63;100581.97;4876792;28;100447;-82
2021/06/05 04:38:13;;;;;;;9.98;5.25;;;;;;;19.59;62.56;100586.97;4875681;28;96990;-81
2021/06/05 04:40:40;;;;;;;7.57;5.15;;;;;;;19.77;62.13;100573.38;4861199;28;96874;-81
2021/06/05 04:43:07;;;;;;;6.45;5.50;;;;;;;19.68;62.00;100573.06;4875525;28;101669;-81
2021/06/05 04:45:33;;;;;;;7.18;4.95;;;;;;;19.54;62.70;100575.75;4876022;28;98249;-81
2021/06/05 04:47:59;;;;;;;10.88;5.50;;;;;;;19.70;62.91;100569.44;4859939;28;97986;-81
2021/06/05 04:50:31;;;;;;;7.05;5.00;;;;;;;20.01;62.25;100571.72;4860088;28;97155;-81
2021/06/05 04:52:57;;;;;;;10.45;5.40;;;;;;;20.13;61.50;100564.66;4860331;28;101779;-81
2021/06/05 04:55:23;;;;;;;7.25;5.50;;;;;;;20.12;60.84;100571.78;4859423;28;101199;-81
2021/06/05 04:57:51;;;;;;;6.00;5.05;;;;;;;20.25;60.60;100573.63;4860666;28;96585;-81
2021/06/05 05:00:19;;;;;;;6.45;4.68;;;;;;;20.33;60.88;100577.44;4859738;28;96888;-81
2021/06/05 05:02:45;;;;;;;13.13;5.35;;;;;;;20.29;61.10;100572.44;4860361;28;100217;-82
2021/06/05 05:05:11;;;;;;;8.23;4.70;;;;;;;20.53;60.33;100570.69;4875608;28;97946;-82
2021/06/05 05:07:37;;;;;;;6.82;4.88;;;;;;;20.79;59.30;100567.97;4876300;28;97096;-82
2021/06/05 05:10:04;;;;;;;8.73;4.88;;;;;;;20.93;58.89;100566.97;4860170;28;97074;-82
2021/06/05 05:12:30;;;;;;;8.15;5.20;;;;;;;20.94;58.27;100566.88;4858918;28;99377;-82
2021/06/05 05:14:56;;;;;;;5.68;4.07;;;;;;;21.08;58.83;100579.19;4859977;28;100362;-82
2021/06/05 05:17:22;;;;;;;5.28;4.63;;;;;;;21.25;57.91;100583.25;4859419;28;97030;-83
2021/06/05 05:19:47;;;;;;;5.40;4.60;;;;;;;21.29;57.25;100581.22;4860055;28;97295;-82
2021/06/05 05:22:13;;;;;;;10.48;4.90;;;;;;;21.34;56.87;100573.72;4874967;28;101431;-82
2021/06/05 05:24:39;;;;;;;5.88;4.65;;;;;;;21.54;56.97;100588.28;4859756;28;101301;-82
2021/06/05 05:27:05;;;;;;;10.05;5.35;;;;;;;21.74;56.09;100587.59;4875626;28;97098;-82
2021/06/05 05:29:31;;;;;;;8.75;5.32;;;;;;;22.06;56.42;100592.28;4859596;28;96911;-83
2021/06/05 05:31:56;;;;;;;8.80;4.53;;;;;;;22.17;56.79;100584.31;4875610;28;101313;-82
2021/06/05 05:34:22;;;;;;;5.97;4.32;;;;;;;22.40;54.66;100584.31;4858951;28;101351;-82
2021/06/05 05:36:47;;;;;;;6.80;4.57;;;;;;;22.49;54.89;100575.56;4859586;28;96729;-83
2021/06/05 05:39:15;;;;;;;5.80;4.57;;;;;;;22.71;54.60;100572.84;4858957;28;97772;-82
2021/06/05 05:41:42;;;;;;;4.80;4.28;;;;;;;23.04;53.33;100563.94;4859917;28;101829;-83
2021/06/05 05:44:07;;;;;;;8.23;4.13;;;;;;;23.41;52.16;100573.41;4859618;28;101112;-83
2021/06/05 05:46:34;;;;;;;7.45;4.85;;;;;;;23.42;52.54;100564.41;4858577;28;96619;-83
2021/06/05 05:49:00;;;;;;;9.35;4.40;;;;;;;23.20;52.63;100563.50;4875489;28;96803;-83
2021/06/05 05:51:26;;;;;;;6.95;4.70;;;;;;;23.03;52.23;100570.25;4858475;28;101484;-82
2021/06/05 05:53:52;;;;;;;13.18;4.97;;;;;;;23.01;52.15;100566.03;4875397;28;101197;-82
2021/06/05 05:56:21;;;;;;;8.45;5.50;;;;;;;22.69;52.88;100571.28;4858430;28;96996;-82
2021/06/05 05:58:50;;;;;;;7.38;4.63;;;;;;;22.68;53.18;100574.94;4877036;28;96825;-82
2021/06/05 06:01:19;;;;;;;6.60;4.75;;;;;;;22.77;53.06;100572.34;4874746;28;98450;-79
2021/06/05 06:03:46;;;;;;;5.72;4.72;;;;;;;23.49;51.63;100570.94;4874775;28;97564;-78
2021/06/05 06:06:11;;;;;;;10.52;4.90;;;;;;;23.95;50.56;100572.41;4876653;28;96799;-78
2021/06/05 06:08:38;;;;;;;7.32;4.53;;;;;;;24.40;49.57;100572.03;4876626;28;96892;-78
2021/06/05 06:11:05;;;;;;;7.10;4.80;;;;;;;25.07;47.46;100578.59;4877270;28;98237;-78
2021/06/05 06:13:31;;;;;;;8.40;5.10;;;;;;;25.52;46.99;100572.72;4857475;28;101183;-77
2021/06/05 06:15:56;;;;;;;9.32;5.28;;;;;;;26.77;44.43;100575.19;4866056;28;96777;-78
2021/06/05 06:18:22;;;;;;;10.55;7.30;;;;;;;26.52;45.09;100574.88;4893205;28;96827;-78
2021/06/05 06:20:51;;;;;;;8.75;7.85;;;;;;;26.47;44.60;100574.47;4877428;28;101022;-77
2021/06/05 06:23:25;;;;;;;8.93;7.90;;;;;;;27.56;43.06;100570.94;4860881;28;101271;-79
2021/06/05 06:25:52;;;;;;;7.13;4.65;;;;;;;28.95;39.92;100567.16;4876479;28;96827;-79
2021/06/05 06:28:23;;;;;;;10.13;5.13;;;;;;;28.16;41.36;100569.19;4876799;28;98034;-78
2021/06/05 06:30:50;;;;;;;5.75;4.63;;;;;;;27.80;41.67;100578.38;4861753;28;100962;-79
2021/06/05 06:33:17;;;;;;;8.27;4.18;;;;;;;29.10;39.72;100581.72;4876825;28;101964;-80
2021/06/05 06:35:43;;;;;;;5.85;4.70;;;;;;;29.92;38.35;100581.75;4878017;28;96816;-79
2021/06/05 06:38:13;;;;;;;7.63;6.53;;;;;;;30.35;37.87;100579.66;4862368;28;97039;-79
2021/06/05 06:40:39;;;;;;;8.25;5.15;;;;;;;31.02;36.74;100575.63;4877029;28;102057;-79
2021/06/05 06:43:06;;;;;;;7.70;4.70;;;;;;;31.65;36.24;100579.94;4861492;28;101243;-79
2021/06/05 06:45:40;;;;;;;6.00;4.35;;;;;;;31.62;35.98;100577.59;4863213;28;96632;-79
2021/06/05 06:48:05;;;;;;;8.48;5.18;;;;;;;31.77;35.50;100577.59;4877122;28;96938;-79
2021/06/05 06:50:31;;;;;;;7.28;4.20;;;;;;;31.79;35.89;100573.69;4876140;28;101551;-80
2021/06/05 06:52:57;;;;;;;7.70;4.18;;;;;;;32.23;35.00;100563.88;4893443;28;98585;-80
2021/06/05 06:55:23;;;;;;;8.63;5.65;;;;;;;32.54;34.64;100571.03;4876456;28;96640;-78
2021/06/05 06:57:49;;;;;;;8.25;6.38;;;;;;;32.68;34.38;100570.16;4876420;28;97006;-78
2021/06/05 07:00:20;;;;;;;6.25;4.25;;;;;;;32.21;33.85;100568.69;4858633;28;101676;-78
2021/06/05 07:02:45;;;;;;;5.03;3.90;;;;;;;31.30;35.46;100571.38;4874256;28;101086;-79
2021/06/05 07:05:11;;;;;;;9.30;4.53;;;;;;;30.03;37.63;100572.44;4858098;28;97239;-79
2021/06/05 07:07:37;;;;;;;6.88;4.63;;;;;;;29.53;38.60;100574.34;4873743;28;97229;-78
2021/06/05 07:10:05;;;;;;;7.38;4.70;;;;;;;28.85;39.45;100574.53;4889639;28;99269;-78
2021/06/05 07:12:31;;;;;;;9.40;4.88;;;;;;;28.06;40.77;100571.13;4872790;28;97844;-80
2021/06/05 07:14:56;;;;;;;8.15;4.57;;;;;;;28.71;40.02;100567.06;4875859;28;97443;-79
2021/06/05 07:17:22;;;;;;;9.07;5.60;;;;;;;27.26;40.99;100570.34;4868421;28;97606;-79
2021/06/05 07:19:47;;;;;;;9.80;5.15;;;;;;;26.27;42.44;100584.47;4875875;28;98584;-78
2021/06/05 07:22:13;;;;;;;6.22;5.50;;;;;;;25.65;43.67;100585.84;4875435;28;97997;-80
2021/06/05 07:24:38;;;;;;;6.78;4.95;;;;;;;25.68;43.95;100578.34;4857844;28;96832;-79
2021/06/05 07:27:04;;;;;;;9.27;4.68;;;;;;;25.28;44.65;100582.06;4873469;28;97134;-80
2021/06/05 07:29:30;;;;;;;5.95;5.13;;;;;;;25.65;44.15;100584.00;4891987;28;97984;-79
2021/06/05 07:31:55;;;;;;;9.70;5.93;;;;;;;25.66;44.13;100574.97;4874098;28;101475;-80
2021/06/05 07:34:23;;;;;;;7.80;5.18;;;;;;;25.79;44.17;100582.72;4871867;28;96823;-79
2021/06/05 07:36:52;;;;;;;10.02;5.80;;;;;;;26.11;42.97;100574.31;4857280;28;96848;-79
2021/06/05 07:39:21;;;;;;;12.02;7.00;;;;;;;26.05;43.53;100571.38;4890673;28;98184;-78
2021/06/05 07:41:47;;;;;;;7.50;5.60;;;;;;;27.01;42.35;100574.59;4874004;28;101275;-79
2021/06/05 07:44:13;;;;;;;8.27;6.15;;;;;;;27.64;40.31;100574.53;4872522;28;97118;-79
2021/06/05 07:46:47;;;;;;;9.68;5.75;;;;;;;27.59;40.33;100567.94;4871515;28;97448;-79
2021/06/05 07:49:14;;;;;;;12.98;6.47;;;;;;;27.85;40.16;100570.69;4869190;28;101687;-79
2021/06/05 07:51:40;;;;;;;8.32;6.15;;;;;;;27.50;40.70;100564.31;4894789;28;97865;-79
2021/06/05 07:54:06;;;;;;;9.43;6.60;;;;;;;27.73;40.29;100560.13;4874114;28;96939;-79
2021/06/05 07:56:32;;;;;;;9.55;6.07;;;;;;;26.99;41.95;100568.50;4873336;28;97421;-80
2021/06/05 07:58:58;;;;;;;7.50;6.18;;;;;;;26.59;42.22;100559.84;4873470;28;101585;-81
2021/06/05 08:01:25;;;;;;;11.32;6.50;;;;;;;26.07;42.95;100572.94;4855272;28;101809;-80
2021/06/05 08:03:51;;;;;;;9.60;6.30;;;;;;;25.51;43.55;100569.19;4873786;28;97668;-80
2021/06/05 08:06:17;;;;;;;9.25;6.35;;;;;;;25.35;44.55;100560.84;4873283;28;97449;-79
2021/06/05 08:08:43;;;;;;;8.20;6.05;;;;;;;25.40;44.24;100563.13;4886889;28;98583;-80
2021/06/05 08:11:09;;;;;;;11.45;6.63;;;;;;;26.41;42.69;100561.59;4873599;28;98294;-79
2021/06/05 08:13:35;;;;;;;14.25;6.97;;;;;;;26.10;42.82;100561.03;4856256;28;97154;-81
2021/06/05 08:16:01;;;;;;;9.02;6.80;;;;;;;26.00;43.29;100562.88;4863775;28;96645;-81
2021/06/05 08:18:27;;;;;;;9.95;7.20;;;;;;;27.41;40.20;100549.09;4880871;28;98072;-80
2021/06/05 08:20:55;;;;;;;16.55;7.07;;;;;;;28.29;39.33;100546.31;4872659;28;101099;-79
2021/06/05 08:23:23;;;;;;;8.57;6.78;;;;;;;27.86;39.67;100542.69;4871375;28;97898;-79
2021/06/05 08:25:49;;;;;;;9.93;6.65;;;;;;;27.55;40.46;100540.44;4856611;28;100019;-78
2021/06/05 08:28:16;;;;;;;11.73;6.60;;;;;;;27.84;40.57;100536.59;4871537;28;98341;-79
2021/06/05 08:30:45;;;;;;;10.20;7.13;;;;;;;28.50;39.47;100527.00;4868051;28;97303;-79
2021/06/05 08:33:13;;;;;;;7.43;5.88;;;;;;;28.44;39.22;100525.81;4843953;28;97377;-79
2021/06/05 08:35:39;;;;;;;7.65;4.97;;;;;;;28.65;39.78;100530.75;4856209;28;97641;-80
2021/06/05 08:38:06;;;;;;;9.07;5.68;;;;;;;28.40;39.94;100527.97;4883864;28;97986;-83
2021/06/05 08:40:41;;;;;;;14.70;5.55;;;;;;;28.39;39.63;100520.88;4855401;28;101286;-81
2021/06/05 08:43:07;;;;;;;8.18;4.68;;;;;;;27.91;40.49;100535.81;4881573;28;96745;-79
2021/06/05 08:45:33;;;;;;;7.50;4.47;;;;;;;27.42;40.82;100526.50;4871099;28;97019;-80
2021/06/05 08:48:03;;;;;;;5.70;4.15;;;;;;;27.26;41.71;100522.69;4871955;28;102152;-80
2021/06/05 08:50:30;;;;;;;11.65;4.72;;;;;;;28.01;40.89;100519.50;4884192;28;102697;-80
2021/06/05 08:53:03;;;;;;;8.43;4.70;;;;;;;29.26;39.00;100520.59;4892112;28;97382;-81
2021/06/05 08:55:39;;;;;;;6.55;4.18;;;;;;;29.11;39.10;100520.41;4891408;28;97360;-83
2021/06/05 08:58:31;;;;;;;6.28;4.00;;;;;;;29.62;38.07;100528.38;4893090;28;98191;-81
2021/06/05 09:01:05;;;;;;;5.35;4.07;;;;;;;29.74;37.84;100530.56;4860778;28;99312;-80
2021/06/05 09:03:34;;;;;;;5.00;4.50;;;;;;;29.94;37.15;100525.63;4870435;28;98066;-79
2021/06/05 09:06:36;;;;;;;8.23;4.43;;;;;;;29.52;37.42;100526.66;4862232;28;97063;-79
2021/06/05 09:09:05;;;;;;;6.32;3.85;;;;;;;29.90;37.54;100518.00;4853786;28;98221;-79
2021/06/05 09:11:31;;;;;;;7.15;4.38;;;;;;;30.17;37.57;100508.63;4853811;28;98478;-78
2021/06/05 09:13:56;;;;;;;5.75;3.65;;;;;;;30.63;37.24;100508.75;4853555;28;98155;-79
2021/06/05 09:16:26;;;;;;;6.40;4.72;;;;;;;30.89;36.80;100512.03;4866643;28;97395;-77
2021/06/05 09:18:56;;;;;;;6.25;3.53;;;;;;;30.77;36.56;100507.16;4896749;28;100399;-79
2021/06/05 09:21:35;;;;;;;5.13;3.53;;;;;;;30.62;37.38;100498.97;4879715;28;103689;-79
2021/06/05 09:24:52;;;;;;;4.70;3.53;;;;;;;30.48;37.78;100505.97;4899268;28;96899;-80
2021/06/05 09:27:18;;;;;;;4.47;3.80;;;;;;;30.38;37.44;100506.19;4869338;28;97559;-80
2021/06/05 09:30:01;;;;;;;5.80;3.80;;;;;;;30.54;37.95;100509.84;4898328;28;103241;-80
2021/06/05 09:32:31;;;;;;;4.43;3.50;;;;;;;30.45;38.52;100506.31;4877022;28;101705;-79
2021/06/05 09:35:15;;;;;;;5.15;4.47;;;;;;;30.41;38.42;100508.53;4878875;28;97226;-81
2021/06/05 09:37:43;;;;;;;5.57;4.05;;;;;;;30.08;38.25;100499.72;4894550;28;97221;-79
2021/06/05 09:40:18;;;;;;;5.60;3.75;;;;;;;30.38;38.86;100506.19;4894757;28;98972;-79
2021/06/05 09:42:47;;;;;;;5.97;3.80;;;;;;;30.48;38.25;100499.72;4889731;28;98321;-80
2021/06/05 09:45:24;;;;;;;9.60;4.28;;;;;;;30.28;37.88;100508.25;4858431;28;97302;-78
2021/06/05 09:47:50;;;;;;;5.05;3.95;;;;;;;29.73;38.85;100496.44;4871907;28;98977;-79
2021/06/05 09:50:36;;;;;;;8.40;3.90;;;;;;;29.75;38.79;100501.66;4856242;28;101621;-79
2021/06/05 09:53:35;;;;;;;8.32;3.45;;;;;;;29.75;38.32;100512.47;4858746;28;101409;-80
2021/06/05 09:56:26;;;;;;;5.10;3.47;;;;;;;29.42;37.48;100515.19;4858008;28;97088;-78
2021/06/05 09:59:03;;;;;;;4.63;3.22;;;;;;;29.29;38.45;100506.72;4879483;28;96755;-79
2021/06/05 10:01:30;;;;;;;6.88;3.15;;;;;;;29.11;38.62;100510.44;4894288;28;101687;-78
2021/06/05 10:04:08;;;;;;;4.72;3.35;;;;;;;29.07;38.35;100508.28;4891201;28;98231;-79
2021/06/05 10:06:51;;;;;;;4.32;3.25;;;;;;;28.86;38.66;100500.63;4892380;28;96691;-78
2021/06/05 10:09:26;;;;;;;7.13;4.00;;;;;;;28.60;38.89;100501.56;4876090;28;96801;-79
2021/06/05 10:12:02;;;;;;;7.57;3.83;;;;;;;28.69;39.86;100497.03;4890243;28;98068;-78
2021/06/05 10:14:52;;;;;;;5.82;3.97;;;;;;;28.46;39.54;100490.56;4890089;28;98463;-77
2021/06/05 10:17:38;;;;;;;5.03;3.80;;;;;;;28.26;39.96;100493.50;4861649;28;97294;-79
2021/06/05 10:20:41;;;;;;;4.50;3.70;;;;;;;27.83;40.95;100494.47;4854812;28;97146;-79
2021/06/05 10:23:08;;;;;;;5.38;3.92;;;;;;;27.73;41.77;100489.16;4889942;28;101892;-78
2021/06/05 10:25:41;;;;;;;4.32;3.60;;;;;;;27.62;41.77;100481.34;4890737;28;97861;-78
2021/06/05 10:28:19;;;;;;;5.07;3.70;;;;;;;27.61;41.80;100485.06;4874902;28;97172;-78
2021/06/05 10:30:58;;;;;;;7.00;3.85;;;;;;;27.54;41.84;100490.22;4891387;28;97273;-78
2021/06/05 10:33:49;;;;;;;4.65;3.85;;;;;;;27.28;41.40;100490.19;4890177;28;98534;-78
2021/06/05 10:36:28;;;;;;;6.50;3.42;;;;;;;27.19;41.25;100478.50;4877387;28;101144;-78
2021/06/05 10:39:22;;;;;;;6.43;3.78;;;;;;;27.19;41.09;100483.88;4876476;28;97941;-78
2021/06/05 10:42:03;;;;;;;6.47;3.65;;;;;;;26.88;41.34;100483.44;4876899;28;97574;-78
2021/06/05 10:44:29;;;;;;;4.68;4.07;;;;;;;26.85;41.91;100489.13;4877095;28;100246;-78
2021/06/05 10:46:58;;;;;;;5.95;4.13;;;;;;;26.99;41.20;100488.56;4877157;28;98484;-76
